Time;durP1;ratioP1;P1;durP2;ratioP2;P2;SDS_P1;SDS_P2;PMS_P1;PMS_P2;Temp;Humidity;BMP_temperature;BMP_pressure;BME280_temperature;BME280_humidity;BME280_pressure;Samples;Min_cycle;Max_cycle;Signal;HPM_P1;HPM_P2
2023/05/20 00:00:10;;;;;;;26.75;14.43;;;;;;;15.56;79.81;99631.28;5035143;28;20056;-90
2023/05/20 00:02:36;;;;;;;20.42;12.63;;;;;;;15.66;80.25;99641.19;5035058;28;20036;-91
2023/05/20 00:05:02;;;;;;;16.48;12.57;;;;;;;15.54;80.87;99603.47;5035661;28;20424;-91
2023/05/20 00:07:28;;;;;;;19.63;12.23;;;;;;;15.48;81.30;99613.38;5033858;28;20063;-92
2023/05/20 00:09:53;;;;;;;21.58;11.60;;;;;;;15.38;81.24;99602.66;5052309;28;20029;-91
2023/05/20 00:12:19;;;;;;;14.05;11.35;;;;;;;15.32;82.13;99623.84;5054779;28;20021;-91
2023/05/20 00:14:44;;;;;;;23.60;12.50;;;;;;;15.38;82.14;99620.38;5045583;28;20029;-92
2023/05/20 00:17:10;;;;;;;22.15;11.73;;;;;;;15.01;83.13;99624.28;5034777;28;20017;-91
2023/05/20 00:19:35;;;;;;;17.95;12.82;;;;;;;14.96;83.98;99613.28;5042803;28;20039;-91
2023/05/20 00:22:01;;;;;;;22.33;12.73;;;;;;;15.11;83.19;99619.31;5031138;28;20021;-92
2023/05/20 00:24:26;;;;;;;32.28;12.75;;;;;;;15.12;83.13;99629.38;5017015;28;20064;-91
2023/05/20 00:26:52;;;;;;;17.10;12.43;;;;;;;15.15;83.00;99618.22;5014912;28;20024;-92
2023/05/20 00:29:20;;;;;;;16.73;13.32;;;;;;;15.19;83.46;99618.28;5029822;28;20112;-91
2023/05/20 00:31:45;;;;;;;18.13;12.95;;;;;;;15.24;82.82;99623.66;5034622;28;20025;-92
2023/05/20 00:34:11;;;;;;;17.90;12.45;;;;;;;15.25;82.51;99628.13;5034272;28;20028;-92
2023/05/20 00:36:36;;;;;;;18.83;12.30;;;;;;;15.22;82.39;99623.22;5034070;28;20029;-92
2023/05/20 00:39:01;;;;;;;18.30;13.02;;;;;;;15.08;82.36;99605.91;5029765;28;20025;-91
2023/05/20 00:41:27;;;;;;;21.20;13.48;;;;;;;15.06;82.73;99605.47;5028159;28;20030;-92
2023/05/20 00:43:53;;;;;;;18.33;13.02;;;;;;;15.04;82.58;99585.31;5053786;28;20024;-90
2023/05/20 00:46:19;;;;;;;25.52;12.57;;;;;;;15.12;82.73;99612.47;5035905;28;20045;-91
2023/05/20 00:48:45;;;;;;;16.13;11.02;;;;;;;14.87;82.50;99593.72;5027898;28;20536;-91
2023/05/20 00:51:12;;;;;;;18.30;10.52;;;;;;;15.02;82.82;99611.00;5016519;28;20017;-91
2023/05/20 00:53:38;;;;;;;15.85;11.77;;;;;;;14.79;82.91;99622.06;5016161;28;20410;-91
2023/05/20 00:56:05;;;;;;;15.52;11.18;;;;;;;14.89;83.36;99607.47;5016760;28;20112;-92
2023/05/20 00:58:31;;;;;;;19.70;11.30;;;;;;;14.98;82.95;99616.56;5017442;28;20030;-91
2023/05/20 01:00:57;;;;;;;17.55;12.68;;;;;;;14.87;82.96;99607.00;5025634;28;20026;-91
2023/05/20 01:03:22;;;;;;;14.70;11.45;;;;;;;15.02;82.78;99611.00;5017606;28;20026;-92
2023/05/20 01:05:48;;;;;;;18.20;11.55;;;;;;;14.96;82.53;99618.94;5017747;28;20526;-91
2023/05/20 01:08:13;;;;;;;19.35;11.35;;;;;;;15.00;82.43;99611.38;5018584;28;20044;-91
2023/05/20 01:10:45;;;;;;;19.90;12.05;;;;;;;15.05;82.06;99617.91;5016896;28;20137;-93
2023/05/20 01:13:16;;;;;;;20.63;12.57;;;;;;;14.86;82.06;99609.00;5014312;28;20032;-94
2023/05/20 01:15:43;;;;;;;17.02;11.75;;;;;;;14.28;84.56;99592.47;5030983;28;20387;-90
2023/05/20 01:18:10;;;;;;;18.80;13.25;;;;;;;14.06;87.49;99597.47;5025000;28;20482;-92
2023/05/20 01:20:36;;;;;;;26.67;13.10;;;;;;;14.36;86.27;99602.78;5033827;28;20490;-91
2023/05/20 01:23:02;;;;;;;16.92;12.48;;;;;;;14.39;85.16;99590.78;5033647;28;20112;-92
2023/05/20 01:25:28;;;;;;;18.00;12.35;;;;;;;14.43;85.16;99586.06;5033390;28;20063;-91
2023/05/20 01:27:56;;;;;;;16.35;12.77;;;;;;;14.48;84.92;99590.63;5033211;28;20022;-91
2023/05/20 01:30:27;;;;;;;19.45;12.45;;;;;;;14.52;84.92;99593.56;5033525;28;20088;-91
2023/05/20 01:33:11;;;;;;;23.63;12.68;;;;;;;14.40;84.40;99566.28;5033538;28;20178;-91
2023/05/20 01:35:39;;;;;;;18.48;11.77;;;;;;;14.55;83.87;99587.19;5029552;28;20040;-93
2023/05/20 01:38:07;;;;;;;17.05;11.18;;;;;;;14.39;83.36;99573.06;5015463;28;20442;-91
2023/05/20 01:40:33;;;;;;;15.73;11.73;;;;;;;14.56;83.20;99602.91;5033439;28;20029;-92
2023/05/20 01:43:00;;;;;;;18.95;11.85;;;;;;;13.96;85.51;99593.16;5033075;28;20401;-91
2023/05/20 01:45:26;;;;;;;20.75;13.05;;;;;;;13.72;87.31;99588.38;5032964;28;20490;-91
2023/05/20 01:47:51;;;;;;;19.80;12.52;;;;;;;13.86;86.70;99597.25;5032876;28;20052;-92
2023/05/20 01:50:17;;;;;;;18.17;12.30;;;;;;;13.77;87.37;99579.72;5029466;28;20022;-91
2023/05/20 01:52:42;;;;;;;23.35;12.73;;;;;;;14.14;86.16;99590.06;5013146;28;20486;-91
2023/05/20 01:55:08;;;;;;;16.13;12.52;;;;;;;14.28;84.99;99589.66;5024729;28;20490;-92
2023/05/20 01:57:34;;;;;;;17.85;12.18;;;;;;;14.21;84.45;99604.34;5032912;28;20077;-90
2023/05/20 01:59:59;;;;;;;20.52;13.07;;;;;;;13.85;86.32;99604.06;5015477;28;20029;-91
2023/05/20 02:02:25;;;;;;;19.45;12.65;;;;;;;14.01;85.79;99589.28;5013215;28;20030;-91
2023/05/20 02:04:52;;;;;;;21.83;13.95;;;;;;;14.01;85.12;99604.16;5021692;28;20508;-91
2023/05/20 02:07:18;;;;;;;16.45;12.63;;;;;;;13.94;85.62;99594.69;5045134;28;20404;-90
2023/05/20 02:09:44;;;;;;;17.50;11.38;;;;;;;14.15;85.08;99595.34;5022574;28;20034;-92
2023/05/20 02:12:15;;;;;;;16.60;11.10;;;;;;;14.10;83.86;99591.94;5012947;28;20030;-91
2023/05/20 02:14:44;;;;;;;17.23;10.52;;;;;;;14.14;83.90;99582.44;5013767;28;20028;-90
2023/05/20 02:17:10;;;;;;;22.38;11.10;;;;;;;13.96;83.10;99583.88;5012644;28;20029;-91
2023/05/20 02:19:36;;;;;;;15.75;11.68;;;;;;;13.96;83.63;99590.34;5013267;28;20395;-91
2023/05/20 02:22:01;;;;;;;18.23;11.25;;;;;;;14.00;83.03;99587.66;5011885;28;20022;-92
2023/05/20 02:24:27;;;;;;;19.38;11.50;;;;;;;13.79;83.78;99584.97;5012262;28;20417;-91
2023/05/20 02:26:54;;;;;;;16.33;11.10;;;;;;;13.54;84.59;99580.22;5012750;28;20037;-92
2023/05/20 02:29:21;;;;;;;17.92;11.25;;;;;;;13.45;85.43;99583.16;5014159;28;20053;-91
2023/05/20 02:31:47;;;;;;;16.92;12.75;;;;;;;13.24;87.15;99579.63;5012666;28;20451;-90
2023/05/20 02:34:14;;;;;;;18.65;11.10;;;;;;;13.34;86.98;99574.34;5012821;28;20021;-90
2023/05/20 02:36:39;;;;;;;15.52;11.32;;;;;;;12.99;88.23;99569.16;5012481;28;20026;-91
2023/05/20 02:39:05;;;;;;;19.90;12.57;;;;;;;13.16;87.55;99572.94;5016865;28;20037;-90
2023/05/20 02:41:30;;;;;;;18.77;11.57;;;;;;;12.82;89.31;99577.81;5032161;28;20486;-90
2023/05/20 02:43:55;;;;;;;24.40;12.30;;;;;;;12.84;89.86;99595.91;5031197;28;20029;-91
2023/05/20 02:46:21;;;;;;;18.27;11.63;;;;;;;13.00;89.32;99590.47;5031511;28;20025;-91
2023/05/20 02:48:46;;;;;;;16.27;11.25;;;;;;;13.19;88.64;99589.88;5026486;28;20025;-91
2023/05/20 02:51:12;;;;;;;15.15;11.80;;;;;;;13.03;88.40;99563.69;5012187;28;20482;-91
2023/05/20 02:53:37;;;;;;;18.92;12.32;;;;;;;13.29;88.73;99585.81;5013358;28;20026;-91
2023/05/20 02:56:03;;;;;;;19.20;11.38;;;;;;;13.34;87.55;99571.53;5025159;28;20045;-91
2023/05/20 02:58:29;;;;;;;16.67;11.45;;;;;;;13.51;87.27;99589.34;5013273;28;20549;-91
2023/05/20 03:00:56;;;;;;;21.40;11.98;;;;;;;13.36;86.52;99573.16;5012087;28;20036;-91
2023/05/20 03:03:24;;;;;;;17.10;10.38;;;;;;;13.46;86.51;99573.56;5011899;28;20030;-91
2023/05/20 03:05:50;;;;;;;19.77;12.00;;;;;;;13.64;86.82;99584.53;5013076;28;20127;-90
2023/05/20 03:08:19;;;;;;;15.98;11.60;;;;;;;13.47;86.61;99572.38;5030565;28;20080;-90
2023/05/20 03:10:44;;;;;;;19.67;12.15;;;;;;;13.42;85.79;99577.38;5032618;28;20031;-91
2023/05/20 03:13:10;;;;;;;20.55;11.85;;;;;;;13.27;87.29;99579.75;5051403;28;20017;-91
2023/05/20 03:15:39;;;;;;;20.25;12.55;;;;;;;13.05;88.54;99576.22;5037218;28;20040;-91
2023/05/20 03:18:07;;;;;;;18.63;11.38;;;;;;;12.79;89.25;99562.47;5031278;28;20555;-90
2023/05/20 03:20:35;;;;;;;20.48;11.68;;;;;;;12.14;92.78;99537.75;5012087;28;20102;-92
2023/05/20 03:23:01;;;;;;;18.52;11.43;;;;;;;12.56;92.53;99576.09;5011358;28;20037;-91
2023/05/20 03:25:27;;;;;;;13.52;9.73;;;;;;;12.68;91.55;99586.53;5022878;28;20038;-90
2023/05/20 03:27:53;;;;;;;16.80;10.95;;;;;;;12.53;91.43;99546.75;5011632;28;20029;-90
2023/05/20 03:30:19;;;;;;;17.35;12.15;;;;;;;12.73;90.56;99544.19;5029325;28;20029;-92
2023/05/20 03:32:44;;;;;;;22.52;11.85;;;;;;;12.90;89.90;99565.63;5030308;28;20022;-91
2023/05/20 03:35:10;;;;;;;21.27;11.50;;;;;;;12.75;90.10;99564.34;5023294;28;20022;-90
2023/05/20 03:37:36;;;;;;;37.05;12.52;;;;;;;12.71;90.98;99563.38;5011424;28;20183;-90
2023/05/20 03:40:05;;;;;;;18.00;12.02;;;;;;;12.87;89.61;99569.16;5034157;28;20036;-92
2023/05/20 03:42:31;;;;;;;18.40;11.13;;;;;;;13.09;89.21;99581.13;5046289;28;20021;-91
2023/05/20 03:44:59;;;;;;;19.17;11.63;;;;;;;13.25;88.78;99593.28;5030226;28;20056;-90
2023/05/20 03:47:25;;;;;;;16.35;10.90;;;;;;;13.29;89.04;99594.25;5031403;28;20025;-90
2023/05/20 03:49:51;;;;;;;19.73;10.88;;;;;;;13.20;87.64;99568.25;5030603;28;20044;-91
2023/05/20 03:52:17;;;;;;;15.90;11.00;;;;;;;13.12;89.81;99575.63;5031145;28;20108;-90
2023/05/20 03:54:42;;;;;;;22.85;10.88;;;;;;;13.37;89.98;99616.94;5030139;28;20021;-90
2023/05/20 03:57:09;;;;;;;25.17;11.98;;;;;;;13.40;89.38;99600.22;5029950;28;20042;-91
2023/05/20 03:59:35;;;;;;;16.38;11.43;;;;;;;13.36;89.65;99618.94;5040754;28;20025;-91
2023/05/20 04:02:01;;;;;;;14.38;11.15;;;;;;;13.60;88.96;99625.78;5016489;28;20037;-90
2023/05/20 04:04:27;;;;;;;24.10;12.38;;;;;;;13.64;89.21;99623.09;5013041;28;20026;-91
2023/05/20 04:06:53;;;;;;;27.63;12.30;;;;;;;13.67;89.63;99631.59;5031048;28;20024;-90
2023/05/20 04:09:21;;;;;;;20.63;11.20;;;;;;;13.59;89.02;99596.84;5023275;28;20513;-91
2023/05/20 04:11:47;;;;;;;20.52;11.55;;;;;;;13.30;90.54;99572.56;5011538;28;20030;-90
2023/05/20 04:14:14;;;;;;;20.50;11.50;;;;;;;13.71;89.91;99623.28;5012984;28;20168;-90
2023/05/20 04:16:40;;;;;;;17.33;11.60;;;;;;;13.72;88.13;99608.06;5011653;28;20026;-91
2023/05/20 04:19:06;;;;;;;17.65;10.32;;;;;;;13.84;87.71;99640.97;5017207;28;20494;-91
2023/05/20 04:21:31;;;;;;;16.33;10.43;;;;;;;13.94;86.88;99639.66;5017693;28;20064;-92
2023/05/20 04:23:57;;;;;;;21.58;11.00;;;;;;;13.87;85.51;99646.69;5011029;28;20125;-89
2023/05/20 04:26:22;;;;;;;17.85;11.10;;;;;;;14.12;84.26;99641.06;5028158;28;20470;-89
2023/05/20 04:28:50;;;;;;;33.15;11.65;;;;;;;14.42;85.30;99632.28;5030230;28;20087;-92
2023/05/20 04:31:16;;;;;;;17.13;10.68;;;;;;;14.20;83.75;99622.41;5019126;28;20096;-90
2023/05/20 04:33:45;;;;;;;16.50;10.65;;;;;;;13.92;87.18;99631.56;5011057;28;20026;-90
2023/05/20 04:36:14;;;;;;;23.83;12.23;;;;;;;13.67;91.62;99639.22;5010948;28;20074;-89
2023/05/20 04:38:41;;;;;;;17.30;13.05;;;;;;;13.84;91.63;99624.09;5016958;28;20541;-89
2023/05/20 04:41:06;;;;;;;15.77;11.60;;;;;;;13.73;91.16;99618.13;5022503;28;20028;-89
2023/05/20 04:43:32;;;;;;;17.15;10.93;;;;;;;13.78;89.74;99637.59;5014504;28;20113;-89
2023/05/20 04:46:00;;;;;;;21.70;11.45;;;;;;;13.62;90.68;99627.03;5024758;28;20064;-89
2023/05/20 04:48:26;;;;;;;24.45;12.82;;;;;;;13.84;92.11;99640.97;5014373;28;20022;-89
2023/05/20 04:50:53;;;;;;;24.27;11.70;;;;;;;13.78;92.08;99626.34;5026087;28;20029;-89
2023/05/20 04:53:20;;;;;;;20.08;12.52;;;;;;;13.98;91.19;99629.34;5022258;28;20028;-89
2023/05/20 04:55:46;;;;;;;23.15;12.82;;;;;;;13.94;91.85;99645.28;5022454;28;20518;-90
2023/05/20 04:58:14;;;;;;;20.73;11.50;;;;;;;14.26;91.44;99632.19;5033791;28;20025;-90
2023/05/20 05:00:41;;;;;;;17.88;12.75;;;;;;;14.42;88.80;99637.91;5036186;28;20059;-90
2023/05/20 05:03:07;;;;;;;17.50;11.65;;;;;;;14.74;88.77;99623.97;5057314;28;20031;-90
2023/05/20 05:05:35;;;;;;;17.60;12.55;;;;;;;14.71;87.68;99592.88;5041367;28;20028;-89
2023/05/20 05:08:02;;;;;;;16.83;10.50;;;;;;;15.20;86.55;99607.84;5037056;28;20021;-89
2023/05/20 05:10:27;;;;;;;21.60;12.55;;;;;;;15.48;83.46;99596.47;5036034;28;20090;-90
2023/05/20 05:12:53;;;;;;;19.50;12.13;;;;;;;15.64;83.28;99601.25;5018502;28;20022;-90
2023/05/20 05:15:18;;;;;;;14.38;10.90;;;;;;;15.81;82.10;99585.94;5024118;28;20029;-90
2023/05/20 05:17:44;;;;;;;17.67;11.70;;;;;;;16.11;80.38;99603.19;5036754;28;20079;-90
2023/05/20 05:20:09;;;;;;;18.33;12.10;;;;;;;16.28;78.19;99599.09;5023463;28;20026;-90
2023/05/20 05:22:35;;;;;;;17.88;11.68;;;;;;;16.49;77.17;99592.28;5016773;28;20029;-89
2023/05/20 05:25:02;;;;;;;16.23;9.80;;;;;;;16.72;76.25;99611.28;5022089;28;20114;-89
2023/05/20 05:27:28;;;;;;;31.60;12.65;;;;;;;16.96;76.12;99623.44;5036483;28;20048;-91
2023/05/20 05:29:53;;;;;;;16.20;10.93;;;;;;;17.18;74.52;99621.00;5034148;28;20509;-91
2023/05/20 05:32:19;;;;;;;15.80;12.23;;;;;;;17.16;73.16;99634.69;5028537;28;20025;-89
2023/05/20 05:34:44;;;;;;;12.95;9.70;;;;;;;17.48;72.42;99629.59;5035267;28;20025;-90
2023/05/20 05:37:10;;;;;;;27.45;12.68;;;;;;;17.62;71.52;99633.88;5035500;28;20079;-89
2023/05/20 05:39:36;;;;;;;30.10;15.75;;;;;;;17.75;71.04;99626.81;5031607;28;20025;-90
2023/05/20 05:42:03;;;;;;;35.00;13.48;;;;;;;17.66;70.11;99632.72;5021408;28;20413;-91
2023/05/20 05:44:28;;;;;;;25.40;13.00;;;;;;;17.67;71.01;99636.38;5037689;28;20028;-89
2023/05/20 05:46:54;;;;;;;25.13;14.43;;;;;;;17.58;74.00;99639.47;5035328;28;20025;-90
2023/05/20 05:49:19;;;;;;;26.15;13.70;;;;;;;17.72;72.45;99636.03;5026667;28;20032;-89
2023/05/20 05:51:45;;;;;;;31.58;14.40;;;;;;;17.55;72.88;99611.94;5023178;28;20025;-91
2023/05/20 05:54:10;;;;;;;25.40;14.70;;;;;;;17.70;71.25;99607.31;5035452;28;20035;-89
2023/05/20 05:56:35;;;;;;;25.08;12.95;;;;;;;17.82;71.04;99617.63;5025767;28;20029;-90
2023/05/20 05:59:01;;;;;;;16.50;11.48;;;;;;;17.67;72.51;99630.72;5027101;28;20505;-90
2023/05/20 06:01:26;;;;;;;25.13;12.68;;;;;;;17.64;72.64;99597.56;5022553;28;20043;-89
2023/05/20 06:03:52;;;;;;;26.52;11.02;;;;;;;17.92;70.28;99616.16;5025547;28;20056;-89
2023/05/20 06:06:18;;;;;;;24.25;10.25;;;;;;;17.90;69.95;99621.38;5030872;28;20055;-90
2023/05/20 06:08:43;;;;;;;16.48;10.27;;;;;;;18.05;66.36;99614.75;5034605;28;20033;-91
2023/05/20 06:11:09;;;;;;;18.77;9.93;;;;;;;17.72;64.48;99630.38;5034369;28;20513;-89
2023/05/20 06:13:35;;;;;;;16.00;8.80;;;;;;;18.23;63.93;99629.13;5034061;28;20091;-89
2023/05/20 06:16:00;;;;;;;13.02;9.65;;;;;;;18.46;62.95;99627.41;5047283;28;20025;-89
2023/05/20 06:18:26;;;;;;;17.75;9.13;;;;;;;18.76;60.47;99621.72;5016058;28;20090;-89
2023/05/20 06:20:55;;;;;;;15.23;9.18;;;;;;;18.40;61.93;99621.25;5034708;28;20060;-89
2023/05/20 06:23:21;;;;;;;12.85;9.00;;;;;;;18.88;61.41;99623.44;5035565;28;20489;-89
2023/05/20 06:25:47;;;;;;;15.32;8.70;;;;;;;19.06;62.17;99620.00;5033623;28;20051;-89
2023/05/20 06:28:13;;;;;;;17.65;11.65;;;;;;;18.53;60.66;99624.66;5025002;28;20124;-88
2023/05/20 06:30:40;;;;;;;17.98;11.13;;;;;;;18.79;59.24;99623.75;5029340;28;20545;-88
2023/05/20 06:33:05;;;;;;;17.88;10.75;;;;;;;19.35;58.58;99618.25;5035028;28;20029;-88
2023/05/20 06:35:33;;;;;;;27.02;11.18;;;;;;;19.35;59.82;99623.13;5049288;28;20574;-88
2023/05/20 06:38:00;;;;;;;23.88;12.38;;;;;;;19.29;59.84;99604.84;5032358;28;20040;-88
2023/05/20 06:40:26;;;;;;;21.00;11.25;;;;;;;19.29;61.72;99591.47;5033270;28;20025;-88
2023/05/20 06:42:52;;;;;;;16.05;11.70;;;;;;;20.00;59.42;99605.81;5030417;28;20029;-88
2023/05/20 06:45:18;;;;;;;17.65;11.38;;;;;;;20.24;57.66;99604.28;5028335;28;20052;-90
2023/05/20 06:47:43;;;;;;;21.30;10.50;;;;;;;19.94;58.00;99610.22;5048453;28;20025;-90
2023/05/20 06:50:09;;;;;;;15.65;10.02;;;;;;;20.08;59.16;99601.78;5024721;28;20563;-89
2023/05/20 06:52:35;;;;;;;16.27;9.55;;;;;;;20.25;58.59;99605.91;5021977;28;20120;-88
2023/05/20 06:55:01;;;;;;;15.93;9.50;;;;;;;20.87;57.07;99601.28;5044620;28;20029;-89
2023/05/20 06:57:27;;;;;;;12.40;9.80;;;;;;;20.73;56.00;99606.91;5015970;28;20044;-89
2023/05/20 06:59:52;;;;;;;15.15;9.07;;;;;;;21.07;56.21;99609.47;5017218;28;20095;-91
2023/05/20 07:02:18;;;;;;;13.30;8.75;;;;;;;21.40;55.36;99595.28;5042414;28;20028;-88
2023/05/20 07:04:43;;;;;;;12.80;8.63;;;;;;;21.45;54.22;99592.84;5028668;28;20028;-88
2023/05/20 07:07:09;;;;;;;15.18;8.77;;;;;;;21.41;54.56;99600.56;5030643;28;20412;-88
2023/05/20 07:09:34;;;;;;;13.80;8.55;;;;;;;20.30;55.75;99602.72;5018645;28;20037;-88
2023/05/20 07:12:00;;;;;;;15.45;8.93;;;;;;;20.41;57.08;99608.44;5020245;28;20033;-89
2023/05/20 07:14:26;;;;;;;17.85;10.80;;;;;;;21.18;55.59;99598.94;5033578;28;20120;-88
2023/05/20 07:16:51;;;;;;;14.60;9.30;;;;;;;21.59;54.71;99599.72;5047437;28;20117;-88
2023/05/20 07:19:17;;;;;;;15.30;9.32;;;;;;;21.80;54.04;99592.44;5036179;28;20085;-88
2023/05/20 07:21:42;;;;;;;13.82;8.27;;;;;;;22.19;53.48;99597.19;5037558;28;20413;-86
2023/05/20 07:24:08;;;;;;;18.90;9.43;;;;;;;22.32;51.67;99586.19;5019224;28;20520;-90
2023/05/20 07:26:35;;;;;;;12.50;8.77;;;;;;;22.67;51.23;99583.59;5024718;28;20032;-92
2023/05/20 07:29:04;;;;;;;10.73;8.30;;;;;;;22.79;49.65;99565.22;5017947;28;20482;-89
2023/05/20 07:31:30;;;;;;;12.63;7.80;;;;;;;23.08;50.26;99596.38;5044259;28;20041;-91
2023/05/20 07:33:55;;;;;;;17.45;9.57;;;;;;;22.16;52.22;99592.34;5014845;28;20041;-89
2023/05/20 07:36:21;;;;;;;12.65;8.60;;;;;;;22.09;51.78;99598.88;5023142;28;20025;-89
2023/05/20 07:38:46;;;;;;;13.18;7.95;;;;;;;22.63;51.73;99603.59;5034818;28;20558;-90
2023/05/20 07:41:12;;;;;;;14.13;8.30;;;;;;;22.26;50.55;99596.38;5034922;28;20029;-89
2023/05/20 07:43:37;;;;;;;13.73;9.82;;;;;;;22.57;50.29;99608.91;5034459;28;20029;-89
2023/05/20 07:46:03;;;;;;;16.40;7.95;;;;;;;22.60;51.40;99592.22;5036296;28;20040;-90
2023/05/20 07:48:29;;;;;;;12.10;8.32;;;;;;;23.23;50.28;99617.06;5042885;28;20112;-90
2023/05/20 07:50:57;;;;;;;19.58;9.23;;;;;;;22.46;49.08;99602.41;5021581;28;20393;-89
2023/05/20 07:53:23;;;;;;;18.73;8.32;;;;;;;22.74;49.94;99592.13;5034673;28;20429;-90
2023/05/20 07:55:49;;;;;;;9.82;7.88;;;;;;;23.48;48.18;99591.22;5044149;28;20036;-89
2023/05/20 07:58:14;;;;;;;8.30;6.60;;;;;;;23.75;44.60;99587.72;5050463;28;20087;-89
2023/05/20 08:00:40;;;;;;;10.02;7.00;;;;;;;24.14;42.59;99602.84;5034587;28;20516;-90
2023/05/20 08:03:06;;;;;;;12.07;7.22;;;;;;;24.25;41.11;99594.97;5032952;28;20025;-89
2023/05/20 08:05:35;;;;;;;12.88;7.05;;;;;;;24.60;42.42;99606.38;5040439;28;20045;-89
2023/05/20 08:08:00;;;;;;;18.13;7.68;;;;;;;24.23;43.17;99583.13;5028675;28;20036;-90
2023/05/20 08:10:26;;;;;;;12.80;6.75;;;;;;;24.35;44.17;99592.38;5013777;28;20029;-87
2023/05/20 08:12:51;;;;;;;9.18;6.60;;;;;;;24.45;40.76;99591.44;5024070;28;20409;-89
2023/05/20 08:15:17;;;;;;;24.65;8.15;;;;;;;24.58;40.64;99570.88;5038195;28;20036;-88
2023/05/20 08:17:42;;;;;;;9.95;8.15;;;;;;;24.72;40.67;99592.75;5035557;28;20103;-90
2023/05/20 08:20:08;;;;;;;12.18;8.10;;;;;;;24.80;40.59;99594.31;5032939;28;20490;-89
2023/05/20 08:22:36;;;;;;;8.57;6.93;;;;;;;24.58;38.00;99568.00;5018177;28;20032;-90
2023/05/20 08:25:01;;;;;;;9.45;7.30;;;;;;;24.75;38.94;99583.28;5032779;28;20078;-88
2023/05/20 08:27:27;;;;;;;11.15;8.27;;;;;;;24.52;38.19;99564.81;5032361;28;20025;-90
2023/05/20 08:29:52;;;;;;;12.18;7.43;;;;;;;24.56;39.47;99590.50;5018651;28;20036;-89
2023/05/20 08:32:18;;;;;;;10.38;8.05;;;;;;;24.54;40.91;99573.75;5030479;28;20033;-89
2023/05/20 08:34:43;;;;;;;8.35;6.32;;;;;;;24.38;40.23;99545.81;5024724;28;20021;-89
2023/05/20 08:37:09;;;;;;;8.68;6.43;;;;;;;24.50;40.52;99553.81;5027185;28;20072;-89
2023/05/20 08:39:35;;;;;;;8.63;6.80;;;;;;;24.70;40.65;99590.31;5018277;28;20033;-89
2023/05/20 08:42:01;;;;;;;11.05;6.72;;;;;;;24.74;40.77;99590.25;5017837;28;20033;-88
2023/05/20 08:44:28;;;;;;;16.17;7.13;;;;;;;24.76;39.16;99582.88;5035064;28;20044;-87
2023/05/20 08:46:55;;;;;;;14.40;7.00;;;;;;;24.98;37.62;99599.75;5029739;28;20032;-88
2023/05/20 08:49:21;;;;;;;9.23;6.25;;;;;;;24.80;37.14;99563.63;5035022;28;20067;-89
2023/05/20 08:51:48;;;;;;;14.82;6.35;;;;;;;25.23;39.02;99581.41;5029494;28;20058;-89
2023/05/20 08:54:15;;;;;;;9.77;6.57;;;;;;;25.27;37.95;99581.31;5033256;28;20029;-90
2023/05/20 08:56:42;;;;;;;9.32;7.40;;;;;;;25.18;39.10;99573.28;5021874;28;20037;-88
2023/05/20 08:59:08;;;;;;;8.75;6.70;;;;;;;25.31;36.35;99576.34;5036483;28;20041;-89
2023/05/20 09:01:44;;;;;;;10.50;6.78;;;;;;;25.25;36.67;99558.88;5019195;28;20044;-88
2023/05/20 09:04:10;;;;;;;10.02;7.05;;;;;;;25.54;38.99;99584.16;5033560;28;20029;-89
2023/05/20 09:06:48;;;;;;;10.43;7.00;;;;;;;25.47;38.88;99581.41;5022430;28;20502;-88
2023/05/20 09:09:14;;;;;;;9.18;6.65;;;;;;;25.24;39.06;99575.22;5037190;28;20412;-89
2023/05/20 09:11:41;;;;;;;7.65;6.22;;;;;;;25.29;38.16;99585.38;5038181;28;20115;-89
2023/05/20 09:14:06;;;;;;;8.98;7.10;;;;;;;25.44;37.81;99576.53;5026095;28;20036;-89
2023/05/20 09:16:32;;;;;;;15.85;7.57;;;;;;;24.94;38.21;99559.75;5019353;28;20025;-90
2023/05/20 09:18:58;;;;;;;11.27;6.47;;;;;;;25.36;38.33;99573.81;5018415;28;20025;-89
2023/05/20 09:21:27;;;;;;;9.82;7.00;;;;;;;25.65;36.29;99572.53;5025310;28;20029;-89
2023/05/20 09:23:56;;;;;;;22.00;7.68;;;;;;;25.70;38.18;99574.06;5051403;28;20041;-90
2023/05/20 09:26:22;;;;;;;8.98;6.25;;;;;;;25.15;37.62;99554.91;5034765;28;20029;-90
2023/05/20 09:28:47;;;;;;;9.57;6.70;;;;;;;25.13;35.14;99571.72;5036872;28;20084;-89
2023/05/20 09:31:13;;;;;;;8.18;6.82;;;;;;;24.85;35.75;99567.25;5037214;28;20029;-89
2023/05/20 09:33:39;;;;;;;10.38;6.78;;;;;;;24.84;37.47;99577.88;5033673;28;20033;-90
2023/05/20 09:36:09;;;;;;;9.07;6.15;;;;;;;24.85;41.92;99568.06;5016955;28;20051;-89
2023/05/20 09:38:39;;;;;;;8.60;6.82;;;;;;;24.85;41.67;99573.78;5034703;28;20041;-89
2023/05/20 09:41:07;;;;;;;9.55;6.85;;;;;;;25.21;40.46;99553.19;5031354;28;20069;-88
2023/05/20 09:43:35;;;;;;;10.15;7.50;;;;;;;25.30;38.29;99569.81;5026038;28;20025;-90
2023/05/20 09:46:01;;;;;;;16.88;7.35;;;;;;;25.41;39.63;99557.38;5024367;28;20029;-88
2023/05/20 09:48:27;;;;;;;12.10;7.55;;;;;;;25.54;39.72;99561.25;5033179;28;20273;-90
2023/05/20 09:50:55;;;;;;;10.50;7.82;;;;;;;25.15;41.35;99557.00;5036546;28;20038;-92
2023/05/20 09:53:22;;;;;;;13.52;7.63;;;;;;;25.31;40.98;99554.25;5017621;28;20056;-90
2023/05/20 09:55:49;;;;;;;10.20;7.35;;;;;;;25.19;41.25;99544.25;5021589;28;20040;-90
2023/05/20 09:58:17;;;;;;;9.73;6.97;;;;;;;25.19;39.88;99541.38;5036111;28;20143;-92
2023/05/20 10:00:43;;;;;;;9.98;7.55;;;;;;;24.99;40.27;99509.84;5027823;28;20494;-88
2023/05/20 10:03:08;;;;;;;9.55;7.53;;;;;;;25.41;39.94;99543.06;5030302;28;20087;-89
2023/05/20 10:05:42;;;;;;;12.18;7.03;;;;;;;25.55;40.07;99542.03;5048591;28;20033;-89
2023/05/20 10:08:16;;;;;;;11.35;7.35;;;;;;;25.41;38.24;99545.94;5029979;28;20021;-88
2023/05/20 10:11:04;;;;;;;14.50;7.47;;;;;;;25.27;37.96;99539.22;5030868;28;20033;-90
2023/05/20 10:13:30;;;;;;;9.63;7.05;;;;;;;25.32;37.19;99540.78;5033517;28;20040;-88
2023/05/20 10:16:17;;;;;;;10.18;6.93;;;;;;;25.03;38.37;99544.91;5034626;28;20116;-89
2023/05/20 10:18:53;;;;;;;9.00;6.72;;;;;;;24.81;39.66;99539.50;5034535;28;20032;-90
2023/05/20 10:21:24;;;;;;;9.73;6.75;;;;;;;25.15;39.79;99536.97;5033713;28;20025;-90
2023/05/20 10:23:50;;;;;;;12.00;7.38;;;;;;;25.49;40.34;99541.72;5030979;28;20036;-88
2023/05/20 10:26:17;;;;;;;9.32;6.95;;;;;;;25.17;40.73;99543.06;5051044;28;20039;-89
2023/05/20 10:28:43;;;;;;;15.73;8.20;;;;;;;25.17;40.38;99541.00;5030441;28;20558;-88
2023/05/20 10:31:20;;;;;;;9.48;7.00;;;;;;;24.90;42.39;99543.91;5023404;28;20029;-90
2023/05/20 10:33:47;;;;;;;9.57;7.38;;;;;;;24.60;43.26;99532.03;5034655;28;20036;-89
2023/05/20 10:36:23;;;;;;;11.90;6.82;;;;;;;24.51;42.76;99546.88;5032890;28;20116;-89
2023/05/20 10:38:54;;;;;;;13.32;7.22;;;;;;;24.85;43.67;99541.50;5059004;28;20028;-89
2023/05/20 10:41:25;;;;;;;13.13;6.57;;;;;;;25.11;42.74;99550.53;5033861;28;20025;-88
2023/05/20 10:44:04;;;;;;;9.25;6.95;;;;;;;25.08;45.12;99535.81;5028542;28;20020;-88
2023/05/20 10:46:30;;;;;;;8.25;6.40;;;;;;;25.02;42.76;99537.56;5032106;28;20021;-88
2023/05/20 10:48:56;;;;;;;10.68;5.85;;;;;;;24.42;43.57;99537.19;5014971;28;20106;-87
2023/05/20 10:51:22;;;;;;;11.02;6.50;;;;;;;24.44;46.54;99544.09;5027937;28;20060;-89
2023/05/20 10:53:54;;;;;;;12.70;6.15;;;;;;;24.27;47.97;99534.53;5016605;28;20049;-89
2023/05/20 10:56:23;;;;;;;7.05;5.75;;;;;;;24.30;46.69;99538.56;5021848;28;20045;-89
2023/05/20 10:58:50;;;;;;;9.30;5.93;;;;;;;23.88;47.48;99535.78;5036269;28;20025;-88
2023/05/20 11:01:17;;;;;;;11.25;6.85;;;;;;;23.68;48.76;99505.81;5021358;28;20033;-89
2023/05/20 11:03:46;;;;;;;11.88;6.07;;;;;;;23.91;46.65;99535.75;5036854;28;20025;-90
2023/05/20 11:06:16;;;;;;;9.35;6.68;;;;;;;23.90;45.48;99539.84;5050903;28;20465;-88
2023/05/20 11:08:43;;;;;;;7.60;6.25;;;;;;;23.88;46.05;99516.59;5040994;28;20044;-89
2023/05/20 11:11:10;;;;;;;9.38;6.95;;;;;;;23.78;47.36;99546.88;5015636;28;20083;-89
2023/05/20 11:13:35;;;;;;;9.82;5.95;;;;;;;23.70;47.74;99540.44;5037351;28;20050;-90
2023/05/20 11:16:01;;;;;;;11.13;6.85;;;;;;;23.95;47.03;99533.66;5015727;28;20034;-89
2023/05/20 11:18:31;;;;;;;11.52;7.22;;;;;;;23.86;46.23;99541.91;5014529;28;20030;-89